Time;durP1;ratioP1;P1;durP2;ratioP2;P2;SDS_P1;SDS_P2;PMS_P1;PMS_P2;Temp;Humidity;BMP_temperature;BMP_pressure;BME280_temperature;BME280_humidity;BME280_pressure;Samples;Min_cycle;Max_cycle;Signal;HPM_P1;HPM_P2
2023/05/13 00:01:14;;;;;;;14.48;12.23;;;12.90;81.50;;;;;;4997514;28;20046;-81
2023/05/13 00:03:40;;;;;;;13.98;12.32;;;12.90;81.60;;;;;;4981342;28;20046;-82
2023/05/13 00:06:06;;;;;;;13.07;11.57;;;12.90;81.60;;;;;;4985491;28;20468;-83
2023/05/13 00:08:32;;;;;;;13.18;11.68;;;12.90;81.70;;;;;;4993919;28;20038;-82
2023/05/13 00:10:57;;;;;;;14.93;12.40;;;12.90;81.60;;;;;;4994109;28;20042;-84
2023/05/13 00:13:23;;;;;;;14.48;12.45;;;12.80;81.70;;;;;;4994812;28;20053;-83
2023/05/13 00:15:49;;;;;;;14.35;12.05;;;12.90;81.70;;;;;;5013562;28;20532;-84
2023/05/13 00:18:15;;;;;;;13.27;11.85;;;12.80;81.60;;;;;;4981128;28;20045;-84
2023/05/13 00:20:41;;;;;;;15.52;11.93;;;12.90;81.80;;;;;;4981251;28;20038;-80
2023/05/13 00:23:06;;;;;;;13.68;12.15;;;12.80;81.90;;;;;;4981063;28;20042;-80
2023/05/13 00:25:33;;;;;;;13.52;12.15;;;12.80;82.00;;;;;;4997184;28;20484;-84
2023/05/13 00:27:58;;;;;;;16.70;14.13;;;12.90;82.00;;;;;;4981109;28;20367;-81
2023/05/13 00:30:24;;;;;;;15.50;12.77;;;12.90;82.10;;;;;;5012942;28;20038;-83
2023/05/13 00:32:50;;;;;;;14.68;13.18;;;12.80;82.20;;;;;;4981038;28;20042;-82
2023/05/13 00:35:16;;;;;;;14.07;12.57;;;12.80;82.10;;;;;;5013320;28;20536;-81
2023/05/13 00:37:42;;;;;;;16.40;14.13;;;12.80;82.00;;;;;;5013342;28;20037;-82
2023/05/13 00:40:18;;;;;;;15.50;13.63;;;12.70;82.20;;;;;;4996795;28;20133;-82
2023/05/13 00:42:43;;;;;;;20.23;14.95;;;12.70;82.20;;;;;;4996693;28;20081;-82
2023/05/13 00:45:09;;;;;;;16.90;12.65;;;12.60;82.40;;;;;;5013324;28;20088;-83
2023/05/13 00:47:35;;;;;;;14.93;12.63;;;12.60;82.40;;;;;;4964623;28;20495;-82
2023/05/13 00:50:02;;;;;;;16.77;14.50;;;12.60;82.60;;;;;;4994001;28;20073;-81
2023/05/13 00:52:28;;;;;;;16.52;14.07;;;12.60;82.60;;;;;;4977124;28;20089;-82
2023/05/13 00:54:53;;;;;;;16.00;14.13;;;12.50;82.80;;;;;;4977192;28;20038;-81
2023/05/13 00:57:20;;;;;;;18.45;14.32;;;12.50;82.80;;;;;;4993434;28;20038;-83
2023/05/13 00:59:46;;;;;;;16.92;13.07;;;12.50;82.80;;;;;;4993458;28;20523;-82
2023/05/13 01:02:23;;;;;;;14.65;13.00;;;12.50;83.00;;;;;;4996280;28;20045;-82
2023/05/13 01:05:17;;;;;;;17.35;12.90;;;12.50;82.80;;;;;;5013031;28;20042;-82
2023/05/13 01:07:54;;;;;;;15.48;13.80;;;12.50;82.80;;;;;;5013358;28;20104;-82
2023/05/13 01:10:33;;;;;;;16.42;13.48;;;12.50;82.80;;;;;;5014578;28;20042;-83
2023/05/13 01:13:04;;;;;;;12.85;11.55;;;12.50;82.90;;;;;;5017012;28;20124;-81
2023/05/13 01:15:31;;;;;;;15.65;13.10;;;12.40;83.10;;;;;;5000078;28;20038;-83
2023/05/13 01:18:13;;;;;;;13.23;11.85;;;12.40;83.10;;;;;;5016940;28;20069;-82
2023/05/13 01:20:41;;;;;;;13.45;12.05;;;12.50;83.10;;;;;;5016043;28;20037;-82
2023/05/13 01:23:10;;;;;;;16.05;12.02;;;12.40;83.10;;;;;;5000027;28;20045;-81
2023/05/13 01:25:38;;;;;;;14.52;12.80;;;12.40;83.10;;;;;;5000396;28;20204;-82
2023/05/13 01:28:04;;;;;;;17.52;12.15;;;12.40;83.10;;;;;;5000574;28;20363;-82
2023/05/13 01:30:30;;;;;;;13.57;12.18;;;12.40;83.00;;;;;;5015824;28;20551;-79
2023/05/13 01:32:57;;;;;;;13.70;12.07;;;12.40;82.90;;;;;;5016627;28;20037;-84
2023/05/13 01:35:23;;;;;;;13.40;12.10;;;12.40;82.80;;;;;;4979870;28;20041;-82
2023/05/13 01:37:49;;;;;;;14.23;12.68;;;12.40;83.00;;;;;;4980453;28;20053;-82
2023/05/13 01:40:15;;;;;;;14.57;11.95;;;12.30;82.80;;;;;;5012853;28;20085;-81
2023/05/13 01:42:42;;;;;;;14.65;13.15;;;12.30;83.00;;;;;;4964195;28;20073;-79
2023/05/13 01:45:08;;;;;;;14.52;13.02;;;12.30;83.10;;;;;;4980530;28;20040;-83
2023/05/13 01:47:34;;;;;;;15.77;13.93;;;12.20;83.10;;;;;;5013050;28;20044;-83
2023/05/13 01:49:59;;;;;;;14.00;12.60;;;12.20;83.00;;;;;;4980902;28;20038;-82
2023/05/13 01:52:25;;;;;;;15.13;13.63;;;12.20;83.10;;;;;;4968736;28;20034;-82
2023/05/13 01:54:51;;;;;;;16.52;12.23;;;12.20;83.10;;;;;;4999770;28;20045;-82
2023/05/13 01:57:17;;;;;;;14.85;13.35;;;12.20;83.10;;;;;;4984009;28;20374;-83
2023/05/13 01:59:42;;;;;;;14.35;12.75;;;12.10;82.80;;;;;;4983481;28;20380;-83
2023/05/13 02:02:08;;;;;;;14.85;13.35;;;12.10;83.00;;;;;;4999748;28;20469;-81
2023/05/13 02:04:34;;;;;;;12.85;11.63;;;12.10;83.00;;;;;;4999250;28;20046;-80
2023/05/13 02:06:59;;;;;;;15.48;12.15;;;12.20;83.00;;;;;;4983610;28;20129;-81
2023/05/13 02:09:25;;;;;;;13.32;11.98;;;12.10;82.90;;;;;;4983359;28;20038;-81
2023/05/13 02:11:51;;;;;;;13.75;12.35;;;12.10;82.80;;;;;;5015200;28;20123;-82
2023/05/13 02:14:16;;;;;;;17.95;13.20;;;12.10;82.90;;;;;;4982922;28;20046;-82
2023/05/13 02:16:42;;;;;;;13.80;12.02;;;12.10;82.90;;;;;;4983867;28;20045;-81
2023/05/13 02:19:08;;;;;;;14.40;12.23;;;12.00;82.90;;;;;;4966921;28;20501;-81
2023/05/13 02:21:34;;;;;;;15.45;12.10;;;12.00;83.00;;;;;;5014763;28;20057;-81
2023/05/13 02:23:59;;;;;;;17.65;13.73;;;12.00;83.10;;;;;;5015298;28;20108;-82
2023/05/13 02:26:25;;;;;;;12.50;11.20;;;12.00;83.20;;;;;;5015278;28;20406;-82
2023/05/13 02:28:51;;;;;;;13.90;12.00;;;12.00;83.20;;;;;;4979276;28;20034;-80
2023/05/13 02:31:16;;;;;;;14.80;13.30;;;12.00;83.40;;;;;;4979867;28;20057;-80
2023/05/13 02:33:42;;;;;;;13.32;11.30;;;12.00;83.30;;;;;;4995932;28;20042;-80
2023/05/13 02:36:08;;;;;;;14.23;12.73;;;12.00;83.40;;;;;;4995644;28;20128;-81
2023/05/13 02:38:34;;;;;;;14.07;12.18;;;11.90;83.50;;;;;;4979187;28;20108;-80
2023/05/13 02:41:00;;;;;;;15.82;12.05;;;11.90;83.40;;;;;;4995445;28;20049;-80
2023/05/13 02:43:26;;;;;;;17.17;13.55;;;11.90;83.50;;;;;;4979462;28;20082;-82
2023/05/13 02:45:52;;;;;;;17.27;15.40;;;11.90;83.60;;;;;;5009425;28;20038;-79
2023/05/13 02:48:18;;;;;;;16.83;13.52;;;11.90;83.60;;;;;;5015312;28;20509;-81
2023/05/13 02:50:44;;;;;;;14.77;13.20;;;11.80;83.70;;;;;;4998592;28;20044;-79
2023/05/13 02:53:09;;;;;;;19.02;12.85;;;11.80;83.80;;;;;;5015210;28;20426;-83
2023/05/13 02:55:35;;;;;;;15.88;12.30;;;11.80;83.90;;;;;;4982415;28;20041;-79
2023/05/13 02:58:01;;;;;;;15.65;14.07;;;11.80;83.80;;;;;;4998526;28;20479;-78
2023/05/13 03:00:27;;;;;;;14.25;12.75;;;11.80;83.60;;;;;;4989494;28;20038;-80
2023/05/13 03:02:52;;;;;;;14.70;13.27;;;11.80;83.70;;;;;;4979413;28;20061;-81
2023/05/13 03:05:18;;;;;;;19.85;13.73;;;11.80;83.50;;;;;;4978969;28;20512;-80
2023/05/13 03:07:44;;;;;;;14.65;13.15;;;11.80;83.70;;;;;;4978807;28;20106;-81
2023/05/13 03:10:10;;;;;;;17.38;14.50;;;11.80;83.70;;;;;;4995264;28;20050;-81
2023/05/13 03:12:35;;;;;;;18.98;13.82;;;11.70;83.60;;;;;;4978906;28;20065;-83
2023/05/13 03:15:02;;;;;;;15.27;12.85;;;11.70;83.50;;;;;;4978862;28;20042;-80
2023/05/13 03:17:30;;;;;;;16.40;12.52;;;11.70;83.60;;;;;;4999114;28;20030;-82
2023/05/13 03:19:56;;;;;;;14.48;13.07;;;11.70;83.60;;;;;;4982894;28;20053;-82
2023/05/13 03:22:22;;;;;;;16.77;13.68;;;11.70;83.70;;;;;;5014411;28;20033;-82
2023/05/13 03:24:47;;;;;;;17.52;15.23;;;11.70;83.90;;;;;;5014116;28;20050;-83
2023/05/13 03:27:13;;;;;;;17.98;16.17;;;11.70;83.80;;;;;;5014420;28;20095;-81
2023/05/13 03:29:39;;;;;;;18.70;14.80;;;11.70;84.10;;;;;;4998000;28;20049;-82
2023/05/13 03:32:05;;;;;;;15.73;14.18;;;11.70;84.20;;;;;;4996887;28;20049;-81
2023/05/13 03:34:32;;;;;;;19.52;15.90;;;11.70;84.40;;;;;;5013006;28;20050;-80
2023/05/13 03:36:58;;;;;;;18.25;15.95;;;11.80;84.50;;;;;;4997101;28;20044;-83
2023/05/13 03:39:25;;;;;;;14.60;13.13;;;11.70;84.70;;;;;;4981494;28;20164;-81
2023/05/13 03:41:51;;;;;;;20.55;15.80;;;11.70;85.00;;;;;;4997305;28;20068;-84
2023/05/13 03:44:17;;;;;;;18.00;16.05;;;11.70;85.00;;;;;;4981177;28;20053;-83
2023/05/13 03:46:43;;;;;;;19.50;15.20;;;11.70;85.30;;;;;;4997947;28;20038;-82
2023/05/13 03:49:09;;;;;;;18.85;16.92;;;11.80;85.40;;;;;;5013907;28;20046;-81
2023/05/13 03:51:34;;;;;;;17.63;15.75;;;11.70;85.50;;;;;;4994517;28;20027;-83
2023/05/13 03:54:01;;;;;;;16.70;13.57;;;11.70;85.70;;;;;;4977988;28;20049;-81
2023/05/13 03:56:27;;;;;;;17.02;14.85;;;11.80;85.70;;;;;;4977811;28;20057;-81
2023/05/13 03:58:52;;;;;;;20.02;17.13;;;11.80;85.40;;;;;;4978166;28;20042;-82
2023/05/13 04:01:18;;;;;;;17.83;15.65;;;11.80;85.50;;;;;;4977913;28;20038;-81
2023/05/13 04:03:45;;;;;;;18.17;16.02;;;11.80;85.70;;;;;;4993860;28;20081;-83
2023/05/13 04:06:12;;;;;;;19.55;16.80;;;11.80;85.60;;;;;;4962137;28;20502;-83
2023/05/13 04:08:38;;;;;;;23.40;18.30;;;11.80;85.80;;;;;;4994168;28;20092;-81
2023/05/13 04:11:04;;;;;;;24.40;17.95;;;11.80;85.90;;;;;;4994210;28;20034;-80
2023/05/13 04:13:33;;;;;;;17.85;15.95;;;11.80;85.90;;;;;;4994375;28;20056;-84
2023/05/13 04:15:58;;;;;;;19.75;16.90;;;11.80;86.00;;;;;;4962776;28;20383;-80
2023/05/13 04:18:24;;;;;;;18.65;15.55;;;11.80;86.10;;;;;;4961587;28;20042;-81
2023/05/13 04:20:50;;;;;;;16.83;15.02;;;11.70;86.10;;;;;;4977785;28;20038;-81
2023/05/13 04:23:15;;;;;;;16.00;14.38;;;11.70;86.10;;;;;;4993714;28;20517;-83
2023/05/13 04:25:41;;;;;;;19.00;15.43;;;11.70;86.20;;;;;;4977274;28;20050;-83
2023/05/13 04:28:07;;;;;;;18.52;15.25;;;11.70;86.30;;;;;;4994344;28;20042;-84
2023/05/13 04:30:33;;;;;;;18.65;14.70;;;11.80;86.50;;;;;;4993594;28;20045;-85
2023/05/13 04:32:59;;;;;;;19.58;14.52;;;11.70;86.50;;;;;;4994693;28;20108;-82
2023/05/13 04:35:25;;;;;;;16.38;14.43;;;11.70;86.70;;;;;;4993580;28;20148;-82
2023/05/13 04:37:50;;;;;;;17.65;14.15;;;11.70;86.70;;;;;;4977820;28;20509;-80
2023/05/13 04:40:16;;;;;;;14.63;12.48;;;11.70;86.70;;;;;;4994519;28;20088;-82
2023/05/13 04:42:42;;;;;;;17.98;13.48;;;11.70;86.80;;;;;;4994601;28;20042;-82
2023/05/13 04:45:08;;;;;;;15.00;12.35;;;11.70;86.80;;;;;;4978350;28;20126;-80
2023/05/13 04:47:34;;;;;;;14.10;12.55;;;11.70;86.60;;;;;;5011445;28;20058;-80
2023/05/13 04:50:00;;;;;;;13.93;11.20;;;11.70;86.70;;;;;;5019177;28;20093;-79
2023/05/13 04:52:26;;;;;;;15.57;11.52;;;11.70;86.80;;;;;;5002903;28;20034;-80
2023/05/13 04:54:51;;;;;;;16.08;11.10;;;11.80;86.70;;;;;;5003022;28;20053;-80
2023/05/13 04:57:17;;;;;;;14.10;10.18;;;11.80;86.70;;;;;;5057723;28;20052;-79
2023/05/13 04:59:43;;;;;;;11.57;10.18;;;11.80;86.50;;;;;;5056040;28;20017;-82
2023/05/13 05:02:08;;;;;;;11.98;10.77;;;11.80;86.50;;;;;;5054578;28;20029;-79
2023/05/13 05:04:34;;;;;;;17.45;11.18;;;11.80;86.50;;;;;;5054901;28;20064;-80
2023/05/13 05:07:00;;;;;;;13.98;10.50;;;11.80;86.50;;;;;;5022135;28;20033;-79
2023/05/13 05:09:25;;;;;;;10.73;9.63;;;11.90;86.40;;;;;;5024667;28;20053;-79
2023/05/13 05:11:51;;;;;;;11.45;10.23;;;11.90;86.40;;;;;;4998525;28;20038;-82
2023/05/13 05:14:17;;;;;;;12.63;10.25;;;12.00;86.30;;;;;;4998118;28;20485;-80
2023/05/13 05:16:43;;;;;;;11.40;9.48;;;12.00;86.10;;;;;;4981341;28;20068;-84
2023/05/13 05:19:08;;;;;;;11.68;9.25;;;12.10;86.20;;;;;;5013463;28;20145;-82
2023/05/13 05:21:34;;;;;;;12.70;9.43;;;12.10;86.10;;;;;;4980801;28;20064;-82
2023/05/13 05:24:00;;;;;;;15.38;9.82;;;12.10;86.00;;;;;;4980470;28;20069;-83
2023/05/13 05:26:26;;;;;;;12.32;9.57;;;12.20;85.90;;;;;;4964816;28;20042;-81
2023/05/13 05:28:52;;;;;;;12.02;9.20;;;12.20;85.70;;;;;;4973009;28;20034;-81
2023/05/13 05:31:17;;;;;;;10.13;9.10;;;12.30;85.70;;;;;;5032767;28;20485;-82
2023/05/13 05:33:43;;;;;;;12.55;9.07;;;12.30;85.60;;;;;;5032771;28;20048;-82
2023/05/13 05:36:09;;;;;;;10.32;8.20;;;12.40;85.40;;;;;;5032687;28;20042;-81
2023/05/13 05:38:35;;;;;;;10.02;7.97;;;12.50;85.20;;;;;;5016522;28;20037;-80
2023/05/13 05:41:00;;;;;;;12.68;8.80;;;12.50;85.10;;;;;;5016249;28;20033;-80
2023/05/13 05:43:26;;;;;;;10.23;8.98;;;12.60;85.10;;;;;;4983820;28;20053;-81
2023/05/13 05:45:52;;;;;;;10.95;9.35;;;12.60;85.00;;;;;;4977003;28;20176;-79
2023/05/13 05:48:17;;;;;;;10.60;8.38;;;12.70;84.90;;;;;;4977173;28;20038;-80
2023/05/13 05:50:43;;;;;;;9.85;8.70;;;12.80;84.80;;;;;;4993428;28;20438;-83
2023/05/13 05:53:09;;;;;;;12.07;8.98;;;12.90;84.70;;;;;;4977094;28;20042;-78
2023/05/13 05:55:34;;;;;;;13.30;8.63;;;12.90;84.70;;;;;;4946417;28;20049;-83
2023/05/13 05:58:04;;;;;;;10.32;8.10;;;13.00;84.50;;;;;;4985453;28;20065;-81
2023/05/13 06:00:30;;;;;;;9.07;8.18;;;13.00;84.30;;;;;;5000254;28;20046;-84
2023/05/13 06:02:56;;;;;;;12.00;9.15;;;13.10;84.30;;;;;;4984579;28;20053;-82
2023/05/13 06:05:22;;;;;;;11.48;9.43;;;13.10;84.30;;;;;;5005518;28;20038;-78
2023/05/13 06:07:48;;;;;;;10.27;8.20;;;13.20;84.30;;;;;;5019370;28;20490;-80
2023/05/13 06:10:14;;;;;;;9.68;8.60;;;13.30;84.20;;;;;;5019532;28;20128;-83
2023/05/13 06:12:42;;;;;;;10.57;7.63;;;13.30;84.20;;;;;;5036123;28;20033;-81
2023/05/13 06:15:09;;;;;;;10.40;7.85;;;13.50;84.20;;;;;;5003872;28;20046;-80
2023/05/13 06:17:38;;;;;;;11.70;7.70;;;13.50;83.80;;;;;;4980630;28;20530;-78
2023/05/13 06:20:05;;;;;;;13.02;7.65;;;13.60;83.80;;;;;;4996330;28;20039;-82
2023/05/13 06:22:30;;;;;;;10.93;7.75;;;13.60;83.60;;;;;;4980973;28;20411;-83
2023/05/13 06:24:56;;;;;;;11.82;7.25;;;13.70;83.60;;;;;;4996219;28;20071;-79
2023/05/13 06:27:22;;;;;;;13.57;8.25;;;13.70;83.50;;;;;;4980031;28;20042;-81
2023/05/13 06:29:47;;;;;;;9.63;7.38;;;13.90;83.40;;;;;;5031261;28;20041;-83
2023/05/13 06:32:13;;;;;;;9.65;7.63;;;14.00;83.40;;;;;;5015574;28;20069;-81
2023/05/13 06:34:44;;;;;;;9.10;7.82;;;14.00;83.30;;;;;;5015516;28;20053;-81
2023/05/13 06:37:10;;;;;;;11.02;8.00;;;14.00;83.10;;;;;;5015822;28;20081;-83
2023/05/13 06:39:37;;;;;;;9.38;6.97;;;14.00;82.70;;;;;;5015968;28;20165;-81
2023/05/13 06:42:03;;;;;;;14.40;8.95;;;14.20;82.50;;;;;;4999319;28;20564;-81
2023/05/13 06:44:28;;;;;;;12.80;7.53;;;14.30;82.10;;;;;;4982950;28;20498;-80
2023/05/13 06:46:54;;;;;;;8.40;7.55;;;14.40;82.10;;;;;;4979168;28;20051;-82
2023/05/13 06:49:20;;;;;;;8.50;6.80;;;14.40;82.20;;;;;;4947515;28;20668;-84
2023/05/13 06:51:47;;;;;;;8.73;7.82;;;14.50;82.20;;;;;;4979308;28;20057;-80
2023/05/13 06:54:12;;;;;;;11.88;7.22;;;14.50;81.80;;;;;;4995533;28;20086;-81
2023/05/13 06:56:38;;;;;;;8.23;6.72;;;14.70;81.80;;;;;;4979591;28;20081;-80
2023/05/13 06:59:04;;;;;;;12.40;6.78;;;14.70;81.80;;;;;;4995360;28;20486;-80
2023/05/13 07:01:29;;;;;;;13.43;7.53;;;14.80;81.40;;;;;;4979883;28;20042;-78
2023/05/13 07:03:55;;;;;;;8.77;7.43;;;14.80;81.10;;;;;;5013348;28;20050;-79
2023/05/13 07:06:21;;;;;;;9.98;7.95;;;15.00;80.70;;;;;;5015011;28;20164;-81
2023/05/13 07:08:47;;;;;;;10.15;6.95;;;15.00;80.70;;;;;;4982628;28;20037;-78
2023/05/13 07:11:12;;;;;;;10.43;8.02;;;15.10;80.30;;;;;;5014875;28;20462;-81
2023/05/13 07:13:38;;;;;;;10.20;7.28;;;15.20;80.30;;;;;;4998963;28;20042;-81
2023/05/13 07:16:04;;;;;;;9.88;7.82;;;15.30;80.10;;;;;;5015400;28;20046;-82
2023/05/13 07:18:32;;;;;;;10.25;7.85;;;15.30;79.60;;;;;;4999426;28;20045;-80
2023/05/13 07:21:01;;;;;;;10.30;7.30;;;15.40;79.30;;;;;;4986416;28;20038;-78
2023/05/13 07:23:27;;;;;;;9.27;6.72;;;15.50;79.40;;;;;;4995116;28;20133;-81
2023/05/13 07:25:52;;;;;;;9.52;7.43;;;15.50;78.70;;;;;;4963069;28;20077;-80
2023/05/13 07:28:19;;;;;;;9.80;7.07;;;15.60;78.70;;;;;;4994837;28;20085;-79
2023/05/13 07:30:45;;;;;;;9.98;7.82;;;15.70;78.60;;;;;;4994870;28;20084;-79
2023/05/13 07:33:11;;;;;;;10.60;7.88;;;15.70;78.30;;;;;;4994689;28;20077;-81
2023/05/13 07:35:37;;;;;;;8.68;6.07;;;15.80;78.50;;;;;;4978384;28;20073;-79
2023/05/13 07:38:03;;;;;;;13.95;7.13;;;15.80;78.30;;;;;;4982408;28;20039;-81
2023/05/13 07:40:29;;;;;;;8.52;6.78;;;15.90;77.60;;;;;;4978665;28;20042;-79
2023/05/13 07:42:55;;;;;;;7.97;6.80;;;16.00;77.00;;;;;;4994641;28;20516;-82
2023/05/13 07:45:20;;;;;;;7.85;6.65;;;16.00;76.70;;;;;;4994559;28;20054;-80
2023/05/13 07:47:46;;;;;;;7.55;6.15;;;16.10;76.80;;;;;;4994556;28;20034;-81
2023/05/13 07:50:15;;;;;;;10.18;7.25;;;16.20;76.20;;;;;;4961789;28;20141;-79
2023/05/13 07:52:42;;;;;;;10.68;7.05;;;16.30;76.10;;;;;;4994026;28;20045;-82
2023/05/13 07:55:09;;;;;;;9.40;6.90;;;16.40;76.10;;;;;;4988542;28;20042;-82
2023/05/13 07:57:35;;;;;;;12.20;6.63;;;16.40;75.60;;;;;;5013859;28;20120;-81
2023/05/13 08:00:01;;;;;;;6.95;6.22;;;16.50;74.80;;;;;;4981430;28;20128;-82
2023/05/13 08:02:27;;;;;;;9.00;5.78;;;16.50;74.40;;;;;;4997131;28;20128;-78
2023/05/13 08:04:52;;;;;;;8.68;6.53;;;16.60;73.40;;;;;;5013579;28;20038;-83
2023/05/13 08:07:18;;;;;;;8.70;5.78;;;16.70;72.80;;;;;;4997255;28;20045;-84
2023/05/13 08:09:44;;;;;;;9.40;6.18;;;16.70;73.30;;;;;;4981252;28;20635;-85
2023/05/13 08:12:09;;;;;;;11.18;6.47;;;16.80;73.50;;;;;;4993826;28;20129;-82
2023/05/13 08:14:35;;;;;;;6.00;5.18;;;16.90;73.60;;;;;;4994437;28;20046;-82
2023/05/13 08:17:04;;;;;;;8.88;6.38;;;16.90;72.90;;;;;;4994020;28;20042;-81
2023/05/13 08:19:29;;;;;;;8.80;5.85;;;17.00;73.30;;;;;;4993784;28;20435;-78
2023/05/13 08:21:55;;;;;;;7.80;6.82;;;17.10;72.50;;;;;;5009941;28;20081;-80
2023/05/13 08:24:21;;;;;;;8.90;5.85;;;17.20;72.80;;;;;;5010314;28;20078;-81
2023/05/13 08:26:46;;;;;;;9.75;6.55;;;17.30;71.90;;;;;;4978152;28;20043;-82
2023/05/13 08:29:14;;;;;;;8.55;6.38;;;17.30;69.40;;;;;;4961439;28;20038;-83
2023/05/13 08:31:40;;;;;;;6.82;5.50;;;17.40;70.60;;;;;;4977399;28;20041;-83
2023/05/13 08:34:06;;;;;;;8.27;6.28;;;17.40;71.50;;;;;;4961454;28;20237;-80
2023/05/13 08:36:32;;;;;;;9.10;6.10;;;17.50;72.00;;;;;;4993889;28;20589;-83
2023/05/13 08:38:58;;;;;;;9.18;5.80;;;17.50;71.90;;;;;;4977747;28;20087;-81
2023/05/13 08:41:25;;;;;;;10.77;6.13;;;17.60;70.80;;;;;;4961030;28;20093;-81
2023/05/13 08:43:53;;;;;;;9.90;6.10;;;17.70;71.20;;;;;;4977081;28;20046;-81
2023/05/13 08:46:21;;;;;;;11.05;6.43;;;17.70;71.50;;;;;;4993816;28;20038;-80
2023/05/13 08:48:48;;;;;;;9.45;6.82;;;17.80;70.80;;;;;;4977451;28;20197;-82
2023/05/13 08:51:14;;;;;;;7.40;5.63;;;17.90;70.40;;;;;;4993273;28;20502;-81
2023/05/13 08:53:41;;;;;;;6.25;5.57;;;17.90;70.10;;;;;;4977210;28;20132;-82
2023/05/13 08:56:08;;;;;;;8.85;6.18;;;18.00;69.80;;;;;;4977658;28;20469;-81
2023/05/13 08:58:34;;;;;;;10.35;6.75;;;18.10;70.60;;;;;;4979649;28;20081;-82
2023/05/13 09:01:00;;;;;;;9.10;6.53;;;18.20;70.60;;;;;;4993360;28;20042;-81
2023/05/13 09:03:27;;;;;;;8.45;6.75;;;18.30;70.60;;;;;;4977026;28;20050;-80
2023/05/13 09:05:53;;;;;;;9.98;7.15;;;18.40;71.10;;;;;;4995311;28;20045;-80
2023/05/13 09:08:19;;;;;;;7.50;6.47;;;18.40;69.70;;;;;;5027910;28;20154;-81
2023/05/13 09:10:45;;;;;;;11.05;7.07;;;18.40;70.10;;;;;;5011308;28;20083;-82
2023/05/13 09:13:11;;;;;;;11.20;6.57;;;18.50;69.00;;;;;;5018944;28;20055;-80
2023/05/13 09:15:41;;;;;;;9.05;7.28;;;18.50;68.90;;;;;;5018349;28;20065;-80
2023/05/13 09:18:07;;;;;;;9.68;5.88;;;18.50;69.30;;;;;;5024160;28;20532;-81
2023/05/13 09:20:34;;;;;;;9.57;6.82;;;18.60;68.40;;;;;;5003396;28;20081;-82
2023/05/13 09:23:02;;;;;;;10.65;5.80;;;18.70;68.20;;;;;;5004189;28;20048;-82
2023/05/13 09:25:29;;;;;;;7.25;5.60;;;18.80;68.10;;;;;;5016376;28;20053;-82
2023/05/13 09:27:57;;;;;;;8.55;6.13;;;18.90;68.80;;;;;;4999381;28;20918;-82
2023/05/13 09:30:24;;;;;;;8.82;5.68;;;18.90;68.30;;;;;;4998010;28;20129;-83
2023/05/13 09:33:04;;;;;;;6.07;5.40;;;19.00;67.50;;;;;;5000031;28;20038;-83
2023/05/13 09:35:31;;;;;;;8.10;5.30;;;19.10;67.00;;;;;;4999840;28;20168;-83
2023/05/13 09:38:00;;;;;;;9.40;5.80;;;19.20;66.80;;;;;;4999782;28;20046;-83
2023/05/13 09:40:25;;;;;;;8.90;5.97;;;19.30;65.70;;;;;;4999791;28;20045;-84
2023/05/13 09:42:57;;;;;;;7.80;5.70;;;19.30;65.90;;;;;;4983162;28;20038;-84
2023/05/13 09:45:25;;;;;;;13.63;6.80;;;19.40;67.10;;;;;;5016169;28;20490;-83
2023/05/13 09:47:54;;;;;;;7.63;5.30;;;19.50;66.30;;;;;;5016393;28;20041;-83
2023/05/13 09:50:20;;;;;;;7.10;5.80;;;19.60;66.00;;;;;;4984025;28;20045;-83
2023/05/13 09:52:46;;;;;;;7.35;5.47;;;19.70;66.20;;;;;;5000308;28;20088;-82
2023/05/13 09:55:12;;;;;;;8.60;6.07;;;19.80;66.20;;;;;;4983304;28;20498;-84
2023/05/13 09:57:39;;;;;;;8.38;5.63;;;19.80;65.00;;;;;;4983579;28;20053;-85
2023/05/13 10:00:06;;;;;;;8.60;6.10;;;19.90;65.40;;;;;;4983591;28;20080;-85
2023/05/13 10:02:33;;;;;;;6.65;5.72;;;19.90;64.80;;;;;;4999853;28;20048;-84
2023/05/13 10:05:00;;;;;;;8.18;5.78;;;19.90;64.20;;;;;;4998876;28;20046;-84
2023/05/13 10:07:27;;;;;;;8.50;6.07;;;20.00;63.70;;;;;;4980271;28;20438;-86
2023/05/13 10:09:57;;;;;;;8.23;5.80;;;20.00;64.30;;;;;;4964138;28;20125;-85
2023/05/13 10:12:27;;;;;;;8.90;6.85;;;20.00;64.50;;;;;;4996601;28;20438;-82
2023/05/13 10:14:54;;;;;;;9.95;6.40;;;20.10;63.60;;;;;;4979478;28;20078;-83
2023/05/13 10:17:21;;;;;;;10.50;7.05;;;20.10;63.90;;;;;;4963217;28;20100;-83
2023/05/13 10:19:51;;;;;;;10.25;7.68;;;20.00;63.80;;;;;;4979582;28;20038;-85
2023/05/13 10:22:30;;;;;;;8.52;6.25;;;20.10;63.40;;;;;;4971631;28;20042;-83
2023/05/13 10:24:58;;;;;;;10.10;6.60;;;20.30;64.80;;;;;;4978940;28;20112;-85
2023/05/13 10:27:29;;;;;;;11.95;7.13;;;20.40;64.30;;;;;;4979433;28;20042;-87
2023/05/13 10:29:59;;;;;;;9.98;7.50;;;20.40;63.30;;;;;;4995471;28;20034;-83
2023/05/13 10:32:28;;;;;;;13.88;6.20;;;20.40;62.70;;;;;;4995272;28;20049;-86
2023/05/13 10:35:02;;;;;;;13.35;7.95;;;20.40;63.20;;;;;;4995291;28;20096;-80
2023/05/13 10:37:54;;;;;;;10.43;7.75;;;20.50;63.00;;;;;;4995396;28;20121;-85
2023/05/13 10:40:52;;;;;;;10.43;7.35;;;20.60;63.10;;;;;;4995111;28;20553;-83
2023/05/13 10:43:24;;;;;;;10.07;6.45;;;20.70;63.70;;;;;;4978648;28;20108;-85
2023/05/13 10:45:56;;;;;;;8.07;5.97;;;20.80;62.20;;;;;;4963312;28;20042;-82
2023/05/13 10:48:22;;;;;;;8.68;6.30;;;20.80;62.10;;;;;;4994703;28;20074;-81
2023/05/13 10:50:55;;;;;;;8.75;6.88;;;20.80;62.40;;;;;;4994693;28;20043;-84
2023/05/13 10:53:29;;;;;;;8.52;6.10;;;20.90;61.40;;;;;;4994739;28;20169;-84
2023/05/13 10:55:57;;;;;;;8.32;7.25;;;20.90;62.30;;;;;;4963250;28;20042;-84
2023/05/13 10:58:33;;;;;;;10.73;7.18;;;21.00;62.30;;;;;;4979321;28;20050;-83
2023/05/13 11:01:27;;;;;;;8.68;7.50;;;21.10;62.20;;;;;;4978443;28;20046;-79
2023/05/13 11:03:56;;;;;;;7.60;5.60;;;21.20;61.90;;;;;;4978560;28;20055;-82
2023/05/13 11:06:27;;;;;;;7.28;6.03;;;21.20;61.80;;;;;;4994906;28;20153;-81
2023/05/13 11:08:53;;;;;;;10.75;6.90;;;21.20;61.60;;;;;;4978225;28;20487;-82
2023/05/13 11:11:23;;;;;;;9.30;7.20;;;21.20;61.00;;;;;;4978395;28;20131;-83
2023/05/13 11:14:14;;;;;;;11.15;7.07;;;21.20;60.60;;;;;;4994631;28;20042;-83
2023/05/13 11:16:53;;;;;;;8.70;6.72;;;21.20;61.60;;;;;;4978174;28;20054;-84
2023/05/13 11:19:28;;;;;;;9.27;7.03;;;21.30;61.40;;;;;;4978219;28;20045;-81
2023/05/13 11:22:15;;;;;;;8.75;6.18;;;21.40;61.70;;;;;;4994292;28;20078;-82
2023/05/13 11:24:43;;;;;;;9.85;6.10;;;21.40;61.80;;;;;;4978041;28;20141;-83
2023/05/13 11:27:12;;;;;;;10.07;6.72;;;21.50;62.10;;;;;;4962308;28;20038;-82
2023/05/13 11:29:46;;;;;;;9.50;7.32;;;21.60;61.50;;;;;;4994006;28;20507;-81
2023/05/13 11:32:12;;;;;;;10.20;7.30;;;21.60;60.30;;;;;;4973856;28;20090;-83
2023/05/13 11:34:48;;;;;;;12.65;7.13;;;21.70;61.60;;;;;;4967923;28;20074;-83
2023/05/13 11:37:14;;;;;;;8.98;7.35;;;21.80;59.90;;;;;;4963945;28;20476;-81
2023/05/13 11:39:40;;;;;;;13.07;7.75;;;21.80;60.40;;;;;;4979622;28;20045;-83
2023/05/13 11:42:08;;;;;;;7.78;6.55;;;21.90;60.30;;;;;;4999310;28;20028;-81
2023/05/13 11:44:34;;;;;;;8.02;6.68;;;21.90;60.30;;;;;;4997081;28;20046;-82
2023/05/13 11:47:02;;;;;;;8.20;6.40;;;22.10;60.50;;;;;;5013558;28;20037;-83
2023/05/13 11:49:32;;;;;;;12.63;6.97;;;22.20;60.30;;;;;;4997470;28;20038;-83
2023/05/13 11:52:03;;;;;;;9.40;6.95;;;22.30;60.10;;;;;;5013503;28;20103;-84
2023/05/13 11:54:29;;;;;;;8.15;6.65;;;22.40;58.60;;;;;;5012368;28;20502;-83
2023/05/13 11:56:55;;;;;;;11.65;6.90;;;22.50;59.00;;;;;;4996963;28;20038;-83
2023/05/13 11:59:21;;;;;;;12.02;7.38;;;22.60;58.50;;;;;;5013345;28;20045;-83
2023/05/13 12:02:07;;;;;;;10.20;6.57;;;22.60;57.30;;;;;;5013529;28;20064;-82
2023/05/13 12:04:33;;;;;;;9.60;6.25;;;22.60;56.80;;;;;;5013336;28;20597;-83
2023/05/13 12:06:59;;;;;;;9.02;6.35;;;22.60;57.30;;;;;;4997129;28;20045;-83
2023/05/13 12:09:24;;;;;;;8.45;6.15;;;22.70;56.60;;;;;;5013596;28;20048;-83
2023/05/13 12:11:52;;;;;;;8.18;6.65;;;22.80;57.20;;;;;;4980455;28;20045;-83
2023/05/13 12:14:19;;;;;;;11.75;5.72;;;22.90;56.60;;;;;;4996714;28;20073;-82
2023/05/13 12:16:45;;;;;;;8.55;5.97;;;22.90;56.30;;;;;;4996768;28;20045;-83
2023/05/13 12:19:11;;;;;;;9.85;7.00;;;22.90;56.30;;;;;;4996833;28;20622;-82
2023/05/13 12:21:37;;;;;;;8.93;5.10;;;23.00;57.00;;;;;;4980593;28;20082;-81
2023/05/13 12:24:17;;;;;;;5.82;4.70;;;23.10;55.40;;;;;;4996201;28;20480;-81
2023/05/13 12:26:43;;;;;;;7.90;4.75;;;23.20;55.20;;;;;;4995996;28;20042;-84
2023/05/13 12:29:08;;;;;;;5.95;4.28;;;23.30;56.00;;;;;;4980442;28;20034;-81
2023/05/13 12:31:34;;;;;;;7.00;4.70;;;23.40;54.20;;;;;;4996305;28;20486;-84
2023/05/13 12:34:00;;;;;;;5.35;4.63;;;23.40;53.40;;;;;;4964092;28;20046;-82
2023/05/13 12:36:36;;;;;;;8.93;4.80;;;23.50;54.70;;;;;;4996321;28;20738;-82